createdAt,value
2019-04-28T00:01:55.133Z,100563.00
2019-04-28T00:04:23.195Z,100569.00
2019-04-28T00:06:51.566Z,100581.00
2019-04-28T00:09:21.365Z,100566.00
2019-04-28T00:11:51.735Z,100567.00
2019-04-28T00:14:21.742Z,100576.00
2019-04-28T00:16:51.209Z,100572.00
2019-04-28T00:19:20.996Z,100567.00
2019-04-28T00:21:58.002Z,100568.00
2019-04-28T00:24:41.864Z,100579.00
2019-04-28T00:27:12.100Z,100572.00
2019-04-28T00:29:43.606Z,100580.00
2019-04-28T00:32:11.248Z,100582.00
2019-04-28T00:34:41.059Z,100579.00
2019-04-28T00:37:28.908Z,100575.00
2019-04-28T00:39:58.325Z,100575.00
2019-04-28T00:42:26.222Z,100578.00
2019-04-28T00:44:54.102Z,100577.00
2019-04-28T00:47:22.060Z,100571.00
2019-04-28T00:49:51.788Z,100576.00
2019-04-28T00:52:21.974Z,100578.00
2019-04-28T00:54:52.318Z,100576.00
2019-04-28T00:57:21.134Z,100577.00
2019-04-28T00:59:56.747Z,100575.00
2019-04-28T01:02:38.876Z,100577.00
2019-04-28T01:05:08.840Z,100570.00
2019-04-28T01:07:36.898Z,100568.00
2019-04-28T01:10:05.556Z,100573.00
2019-04-28T01:12:33.753Z,100569.00
2019-04-28T01:15:04.596Z,100571.00
2019-04-28T01:17:43.735Z,100568.00
2019-04-28T01:20:13.543Z,100516.00
2019-04-28T01:22:41.462Z,100578.00
2019-04-28T01:25:10.655Z,100570.00
2019-04-28T01:28:00.226Z,100582.00
2019-04-28T01:31:02.681Z,100551.00
2019-04-28T01:33:50.270Z,100577.00
2019-04-28T01:36:18.143Z,100577.00
2019-04-28T01:38:46.006Z,100569.00
2019-04-28T01:41:13.900Z,100570.00
2019-04-28T01:43:41.862Z,100574.00
2019-04-28T01:46:10.217Z,100583.00
2019-04-28T01:48:39.815Z,100576.00
2019-04-28T01:51:09.526Z,100570.00
2019-04-28T01:53:39.451Z,100586.00
2019-04-28T01:56:07.311Z,100587.00
2019-04-28T01:58:35.229Z,100583.00
2019-04-28T02:01:03.605Z,100587.00
2019-04-28T02:03:31.511Z,100589.00
2019-04-28T02:06:00.246Z,100590.00
2019-04-28T02:08:30.139Z,100574.00
2019-04-28T02:11:00.013Z,100583.00
2019-04-28T02:13:29.850Z,100568.00
2019-04-28T02:15:59.871Z,100575.00
2019-04-28T02:18:29.809Z,100571.00
2019-04-28T02:21:09.671Z,100582.00
2019-04-28T02:23:39.584Z,100575.00
2019-04-28T02:26:07.517Z,100589.00
2019-04-28T02:28:35.430Z,100587.00
2019-04-28T02:31:03.297Z,100583.00
2019-04-28T02:33:31.452Z,100590.00
2019-04-28T02:36:01.387Z,100582.00
2019-04-28T02:38:31.393Z,100596.00
2019-04-28T02:41:00.189Z,100582.00
2019-04-28T02:43:30.651Z,100582.00
2019-04-28T02:46:00.518Z,100579.00
2019-04-28T02:48:30.810Z,100592.00
2019-04-28T02:51:11.006Z,100583.00
2019-04-28T02:53:43.887Z,100576.00
2019-04-28T02:56:11.866Z,100581.00
2019-04-28T02:58:41.530Z,100590.00
2019-04-28T03:01:18.048Z,100592.00
2019-04-28T03:03:41.144Z,100588.00
2019-04-28T03:06:10.858Z,100583.00
2019-04-28T03:08:40.421Z,100582.00
2019-04-28T03:11:10.668Z,100580.00
2019-04-28T03:13:40.931Z,100583.00
2019-04-28T03:16:10.665Z,100576.00
2019-04-28T03:18:37.962Z,100586.00
2019-04-28T03:21:05.874Z,100595.00
2019-04-28T03:23:33.811Z,100577.00
2019-04-28T03:26:41.389Z,100595.00
2019-04-28T03:29:20.646Z,100591.00
2019-04-28T03:32:30.288Z,100595.00
2019-04-28T03:34:52.977Z,100593.00
2019-04-28T03:37:18.013Z,100592.00
2019-04-28T03:39:45.895Z,100600.00
2019-04-28T03:42:13.909Z,100593.00
2019-04-28T03:44:42.846Z,100597.00
2019-04-28T03:47:10.874Z,100595.00
2019-04-28T03:49:40.593Z,100600.00
2019-04-28T03:52:10.765Z,100597.00
2019-04-28T03:54:41.035Z,100594.00
2019-04-28T03:57:11.119Z,100604.00
2019-04-28T03:59:43.123Z,100593.00
2019-04-28T04:02:10.937Z,100601.00
2019-04-28T04:04:37.926Z,100592.00
2019-04-28T04:07:05.869Z,100592.00
2019-04-28T04:09:42.405Z,100596.00
2019-04-28T04:12:45.058Z,100598.00
2019-04-28T04:15:41.374Z,100595.00
2019-04-28T04:18:15.354Z,100599.00
2019-04-28T04:20:43.196Z,100601.00
2019-04-28T04:23:12.094Z,100600.00
2019-04-28T04:25:41.571Z,100602.00
2019-04-28T04:28:10.548Z,100606.00
2019-04-28T04:30:40.939Z,100616.00
2019-04-28T04:33:11.063Z,100615.00
2019-04-28T04:35:41.115Z,100626.00
2019-04-28T04:38:10.426Z,100633.00
2019-04-28T04:40:37.930Z,100621.00
2019-04-28T04:43:05.841Z,100632.00
2019-04-28T04:45:33.770Z,100622.00
2019-04-28T04:48:01.615Z,100644.00
2019-04-28T04:50:31.443Z,100645.00
2019-04-28T04:53:02.357Z,100642.00
2019-04-28T04:55:30.770Z,100626.00
2019-04-28T04:58:00.792Z,100644.00
2019-04-28T05:00:37.023Z,100644.00
2019-04-28T05:03:13.438Z,100651.00
2019-04-28T05:05:41.863Z,100658.00
2019-04-28T05:08:10.145Z,100650.00
2019-04-28T05:10:43.100Z,100655.00
2019-04-28T05:13:11.039Z,100662.00
2019-04-28T05:15:40.032Z,100663.00
2019-04-28T05:18:10.018Z,100660.00
2019-04-28T05:20:37.933Z,100656.00
2019-04-28T05:23:20.254Z,100660.00
2019-04-28T05:25:49.749Z,100650.00
2019-04-28T05:28:19.648Z,100658.00
2019-04-28T05:30:47.513Z,100657.00
2019-04-28T05:33:30.812Z,100652.00
2019-04-28T05:35:59.230Z,100652.00
2019-04-28T05:38:27.004Z,100661.00
2019-04-28T05:40:54.949Z,100665.00
2019-04-28T05:43:22.955Z,100668.00
2019-04-28T05:45:50.900Z,100663.00
2019-04-28T05:48:36.188Z,100665.00
2019-04-28T05:51:05.434Z,100669.00
2019-04-28T05:53:41.839Z,100678.00
2019-04-28T05:56:29.619Z,100677.00
2019-04-28T05:59:04.937Z,100673.00
2019-04-28T06:01:52.458Z,100675.00
2019-04-28T06:04:24.126Z,100675.00
2019-04-28T06:06:56.803Z,100680.00
2019-04-28T06:09:39.882Z,100670.00
2019-04-28T06:12:10.352Z,100680.00
2019-04-28T06:14:40.169Z,100674.00
2019-04-28T06:17:08.129Z,100690.00
2019-04-28T06:19:35.999Z,100684.00
2019-04-28T06:22:03.913Z,100688.00
2019-04-28T06:24:31.901Z,100681.00
2019-04-28T06:26:59.814Z,100692.00
2019-04-28T06:29:27.698Z,100694.00
2019-04-28T06:31:55.702Z,100693.00
2019-04-28T06:34:25.084Z,100695.00
2019-04-28T06:36:53.026Z,100702.00
2019-04-28T06:39:20.935Z,100696.00
2019-04-28T06:41:48.871Z,100708.00
2019-04-28T06:44:16.752Z,100701.00
2019-04-28T06:46:44.788Z,100700.00
2019-04-28T06:49:12.685Z,100703.00
2019-04-28T06:51:40.570Z,100705.00
2019-04-28T06:54:08.628Z,100705.00
2019-04-28T06:56:36.679Z,100711.00
2019-04-28T06:59:04.739Z,100709.00
2019-04-28T07:01:32.665Z,100718.00
2019-04-28T07:04:00.605Z,100726.00
2019-04-28T07:06:29.590Z,100717.00
2019-04-28T07:08:57.485Z,100721.00
2019-04-28T07:11:25.403Z,100724.00
2019-04-28T07:13:53.321Z,100719.00
2019-04-28T07:16:21.278Z,100722.00
2019-04-28T07:18:49.216Z,100721.00
2019-04-28T07:21:30.169Z,100725.00
2019-04-28T07:23:58.141Z,100725.00
2019-04-28T07:26:26.225Z,100634.00
2019-04-28T07:28:54.165Z,100721.00
2019-04-28T07:31:24.027Z,100721.00
2019-04-28T07:33:52.021Z,100715.00
2019-04-28T07:36:21.067Z,100720.00
2019-04-28T07:38:48.989Z,100719.00
2019-04-28T07:41:16.910Z,100723.00
2019-04-28T07:43:44.859Z,100727.00
2019-04-28T07:46:12.827Z,100726.00
2019-04-28T07:48:40.863Z,100731.00
2019-04-28T07:51:08.826Z,100733.00
2019-04-28T07:53:45.599Z,100743.00
2019-04-28T07:56:13.514Z,100744.00
2019-04-28T07:58:41.453Z,100734.00
2019-04-28T08:01:11.263Z,100741.00
2019-04-28T08:03:49.397Z,100751.00
2019-04-28T08:06:09.085Z,100746.00
2019-04-28T08:08:37.472Z,100749.00
2019-04-28T08:11:05.440Z,100750.00
2019-04-28T08:13:34.359Z,100747.00
2019-04-28T08:16:16.588Z,100741.00
2019-04-28T08:18:44.536Z,100753.00
2019-04-28T08:21:12.600Z,100749.00
2019-04-28T08:23:46.840Z,100756.00
2019-04-28T08:26:10.431Z,100753.00
2019-04-28T08:28:38.782Z,100756.00
2019-04-28T08:31:08.486Z,100757.00
2019-04-28T08:34:02.028Z,100765.00
2019-04-28T08:36:26.027Z,100766.00
2019-04-28T08:38:53.986Z,100766.00
2019-04-28T08:41:21.915Z,100755.00
2019-04-28T08:43:49.853Z,100763.00
2019-04-28T08:46:17.793Z,100756.00
2019-04-28T08:48:45.767Z,100769.00
2019-04-28T08:51:13.698Z,100762.00
2019-04-28T08:53:41.813Z,100764.00
2019-04-28T08:56:09.726Z,100743.00
2019-04-28T08:58:37.652Z,100756.00
2019-04-28T09:01:05.566Z,100757.00
2019-04-28T09:03:34.432Z,100767.00
2019-04-28T09:06:02.384Z,100775.00
2019-04-28T09:08:30.344Z,100766.00
2019-04-28T09:10:58.462Z,100772.00
2019-04-28T09:13:26.691Z,100771.00
2019-04-28T09:15:55.780Z,100764.00
2019-04-28T09:18:23.771Z,100782.00
2019-04-28T09:20:51.855Z,100769.00
2019-04-28T09:23:19.916Z,100771.00
2019-04-28T09:25:47.887Z,100769.00
2019-04-28T09:28:15.888Z,100778.00
2019-04-28T09:30:43.913Z,100770.00
2019-04-28T09:33:13.188Z,100768.00
2019-04-28T09:35:41.114Z,100768.00
2019-04-28T09:38:09.137Z,100778.00
2019-04-28T09:40:37.095Z,100765.00
2019-04-28T09:43:33.863Z,100778.00
2019-04-28T09:46:04.875Z,100775.00
2019-04-28T09:48:33.912Z,100777.00
2019-04-28T09:51:02.042Z,100774.00
2019-04-28T09:53:30.196Z,100769.00
2019-04-28T09:55:58.229Z,100776.00
2019-04-28T09:58:26.303Z,100772.00
2019-04-28T10:00:54.281Z,100764.00
2019-04-28T10:03:25.108Z,100764.00
2019-04-28T10:05:52.173Z,100766.00
2019-04-28T10:08:20.155Z,100755.00
2019-04-28T10:10:48.218Z,100756.00
2019-04-28T10:13:17.340Z,100751.00
2019-04-28T10:15:45.513Z,100751.00
2019-04-28T10:18:13.687Z,100752.00
2019-04-28T10:20:42.857Z,100748.00
2019-04-28T10:23:10.828Z,100749.00
2019-04-28T10:25:38.812Z,100739.00
2019-04-28T10:28:07.139Z,100741.00
2019-04-28T10:30:35.200Z,100742.00
2019-04-28T10:33:03.218Z,100743.00
2019-04-28T10:35:31.219Z,100729.00
2019-04-28T10:37:59.179Z,100726.00
2019-04-28T10:40:54.179Z,100726.00
2019-04-28T10:43:22.217Z,100735.00
2019-04-28T10:45:50.799Z,100731.00
2019-04-28T10:48:18.688Z,100736.00
2019-04-28T10:50:46.669Z,100738.00
2019-04-28T10:53:15.670Z,100737.00
2019-04-28T10:55:43.624Z,100742.00
2019-04-28T10:58:12.968Z,100755.00
2019-04-28T11:00:41.301Z,100736.00
2019-04-28T11:03:09.329Z,100743.00
2019-04-28T11:05:39.951Z,100738.00
2019-04-28T11:08:14.466Z,100749.00
2019-04-28T11:10:42.604Z,100767.00
2019-04-28T11:13:10.808Z,100750.00
2019-04-28T11:15:38.934Z,100760.00
2019-04-28T11:18:09.357Z,100754.00
2019-04-28T11:20:37.750Z,100759.00
2019-04-28T11:23:05.785Z,100756.00
2019-04-28T11:25:33.776Z,100752.00
2019-04-28T11:28:01.755Z,100763.00
2019-04-28T11:30:30.156Z,100762.00
2019-04-28T11:33:14.251Z,100754.00
2019-04-28T11:35:42.357Z,100752.00
2019-04-28T11:38:10.335Z,100755.00
2019-04-28T11:40:38.325Z,100756.00
2019-04-28T11:43:06.680Z,100759.00
2019-04-28T11:45:34.668Z,100756.00
2019-04-28T11:48:02.761Z,100754.00
2019-04-28T11:50:30.863Z,100753.00
2019-04-28T11:52:58.847Z,100745.00
2019-04-28T11:55:27.057Z,100747.00
2019-04-28T11:57:55.033Z,100750.00
2019-04-28T12:00:34.744Z,100741.00
2019-04-28T12:03:02.769Z,100744.00
2019-04-28T12:05:38.529Z,100747.00
2019-04-28T12:08:06.574Z,100746.00
2019-04-28T12:10:39.367Z,100744.00
2019-04-28T12:13:25.974Z,100748.00
2019-04-28T12:16:06.447Z,100742.00
2019-04-28T12:18:55.166Z,100748.00
2019-04-28T12:21:23.289Z,100745.00
2019-04-28T12:23:51.266Z,100751.00
2019-04-28T12:26:19.246Z,100746.00
2019-04-28T12:28:47.211Z,100746.00
2019-04-28T12:31:15.226Z,100742.00
2019-04-28T12:33:43.264Z,100735.00
2019-04-28T12:36:11.299Z,100741.00
2019-04-28T12:38:39.233Z,100732.00
2019-04-28T12:41:07.212Z,100737.00
2019-04-28T12:43:35.213Z,100736.00
2019-04-28T12:46:03.247Z,100727.00
2019-04-28T12:48:32.747Z,100737.00
2019-04-28T12:51:00.851Z,100741.00
2019-04-28T12:53:28.950Z,100743.00
2019-04-28T12:55:56.888Z,100741.00
2019-04-28T12:58:25.047Z,100736.00
2019-04-28T13:01:24.699Z,100730.00
2019-04-28T13:04:10.486Z,100734.00
2019-04-28T13:06:38.506Z,100730.00
2019-04-28T13:09:06.792Z,100726.00
2019-04-28T13:11:36.728Z,100742.00
2019-04-28T13:14:05.762Z,100720.00
2019-04-28T13:16:33.780Z,100707.00
2019-04-28T13:19:01.864Z,100725.00
2019-04-28T13:21:29.939Z,100726.00
2019-04-28T13:23:58.047Z,100724.00
2019-04-28T13:26:26.140Z,100726.00
2019-04-28T13:28:54.268Z,100721.00
2019-04-28T13:31:22.350Z,100728.00
2019-04-28T13:33:56.129Z,100720.00
2019-04-28T13:36:20.349Z,100721.00
2019-04-28T13:38:48.295Z,100720.00
2019-04-28T13:41:16.322Z,100717.00
2019-04-28T13:43:44.317Z,100714.00
2019-04-28T13:46:12.288Z,100715.00
2019-04-28T13:48:40.228Z,100711.00
2019-04-28T13:51:08.182Z,100706.00
2019-04-28T13:53:36.114Z,100707.00
2019-04-28T13:56:04.165Z,100701.00
2019-04-28T13:58:54.444Z,100696.00
2019-04-28T14:01:40.595Z,100696.00
2019-04-28T14:04:17.594Z,100693.00
2019-04-28T14:06:48.376Z,100697.00
2019-04-28T14:09:17.150Z,100698.00
2019-04-28T14:11:45.846Z,100708.00
2019-04-28T14:14:13.918Z,100697.00
2019-04-28T14:16:42.016Z,100697.00
2019-04-28T14:19:10.019Z,100693.00
2019-04-28T14:21:39.517Z,100685.00
2019-04-28T14:24:07.754Z,100691.00
2019-04-28T14:26:35.779Z,100690.00
2019-04-28T14:29:04.949Z,100685.00
2019-04-28T14:31:32.973Z,100684.00
2019-04-28T14:34:01.012Z,100681.00
2019-04-28T14:36:41.436Z,100682.00
2019-04-28T14:38:59.349Z,100686.00
2019-04-28T14:41:27.349Z,100684.00
2019-04-28T14:43:56.486Z,100689.00
2019-04-28T14:46:24.574Z,100697.00
2019-04-28T14:48:54.444Z,100688.00
2019-04-28T14:51:22.489Z,100691.00
2019-04-28T14:53:51.457Z,100686.00
2019-04-28T14:56:19.544Z,100679.00
2019-04-28T14:58:47.668Z,100683.00
2019-04-28T15:01:32.552Z,100678.00
2019-04-28T15:04:03.220Z,100676.00
2019-04-28T15:06:37.758Z,100679.00
2019-04-28T15:09:21.035Z,100685.00
2019-04-28T15:11:55.082Z,100681.00
2019-04-28T15:14:23.437Z,100692.00
2019-04-28T15:16:51.511Z,100685.00
2019-04-28T15:19:19.463Z,100681.00
2019-04-28T15:21:47.859Z,100676.00
2019-04-28T15:24:15.951Z,100683.00
2019-04-28T15:26:44.667Z,100680.00
2019-04-28T15:29:12.829Z,100683.00
2019-04-28T15:31:40.864Z,100691.00
2019-04-28T15:34:08.832Z,100689.00
2019-04-28T15:36:37.385Z,100694.00
2019-04-28T15:39:08.458Z,100695.00
2019-04-28T15:41:36.727Z,100693.00
2019-04-28T15:44:04.749Z,100692.00
2019-04-28T15:46:32.742Z,100701.00
2019-04-28T15:49:00.730Z,100699.00
2019-04-28T15:51:28.754Z,100691.00
2019-04-28T15:53:56.858Z,100697.00
2019-04-28T15:56:31.960Z,100695.00
2019-04-28T15:58:59.977Z,100700.00
2019-04-28T16:01:28.070Z,100712.00
2019-04-28T16:03:56.055Z,100712.00
2019-04-28T16:06:24.136Z,100715.00
2019-04-28T16:08:52.120Z,100715.00
2019-04-28T16:11:21.140Z,100715.00
2019-04-28T16:13:49.087Z,100716.00
2019-04-28T16:16:17.045Z,100710.00
2019-04-28T16:18:45.210Z,100705.00
2019-04-28T16:21:13.271Z,100707.00
2019-04-28T16:23:41.436Z,100711.00
2019-04-28T16:26:09.533Z,100717.00
2019-04-28T16:28:37.729Z,100718.00
2019-04-28T16:31:05.739Z,100717.00
2019-04-28T16:33:33.797Z,100722.00
2019-04-28T16:36:02.927Z,100723.00
2019-04-28T16:38:31.006Z,100726.00
2019-04-28T16:41:01.510Z,100722.00
2019-04-28T16:43:32.076Z,100740.00
2019-04-28T16:46:00.860Z,100726.00
2019-04-28T16:48:28.956Z,100732.00
2019-04-28T16:50:57.103Z,100735.00
2019-04-28T16:53:25.034Z,100737.00
2019-04-28T16:56:05.955Z,100746.00
2019-04-28T16:58:43.177Z,100732.00
2019-04-28T17:01:26.918Z,100736.00
2019-04-28T17:03:55.107Z,100745.00
2019-04-28T17:06:23.336Z,100744.00
2019-04-28T17:08:51.665Z,100741.00
2019-04-28T17:11:19.754Z,100741.00
2019-04-28T17:13:47.853Z,100743.00
2019-04-28T17:16:16.209Z,100750.00
2019-04-28T17:18:44.378Z,100754.00
2019-04-28T17:21:12.582Z,100749.00
2019-04-28T17:23:41.572Z,100751.00
2019-04-28T17:26:11.343Z,100752.00
2019-04-28T17:28:39.830Z,100752.00
2019-04-28T17:31:09.096Z,100748.00
2019-04-28T17:33:37.302Z,100761.00
2019-04-28T17:36:05.377Z,100759.00
2019-04-28T17:38:33.524Z,100759.00
2019-04-28T17:41:03.188Z,100761.00
2019-04-28T17:43:31.329Z,100759.00
2019-04-28T17:45:59.436Z,100767.00
2019-04-28T17:48:32.483Z,100766.00
2019-04-28T17:51:01.432Z,100762.00
2019-04-28T17:53:29.466Z,100770.00
2019-04-28T17:55:57.495Z,100771.00
2019-04-28T17:58:25.745Z,100770.00
2019-04-28T18:01:24.048Z,100780.00
2019-04-28T18:04:24.499Z,100782.00
2019-04-28T18:06:58.121Z,100784.00
2019-04-28T18:09:26.315Z,100782.00
2019-04-28T18:11:54.529Z,100783.00
2019-04-28T18:14:22.716Z,100788.00
2019-04-28T18:17:18.718Z,100792.00
2019-04-28T18:19:46.987Z,100789.00
2019-04-28T18:22:15.512Z,100797.00
2019-04-28T18:24:43.752Z,100800.00
2019-04-28T18:27:11.817Z,100810.00
2019-04-28T18:29:39.907Z,100806.00
2019-04-28T18:32:38.069Z,100817.00
2019-04-28T18:35:20.163Z,100822.00
2019-04-28T18:38:07.953Z,100824.00
2019-04-28T18:40:54.481Z,100829.00
2019-04-28T18:43:42.229Z,100836.00
2019-04-28T18:46:10.646Z,100849.00
2019-04-28T18:48:38.807Z,100845.00
2019-04-28T18:51:07.062Z,100895.00
2019-04-28T18:53:35.357Z,100850.00
2019-04-28T18:56:04.930Z,100861.00
2019-04-28T18:58:33.045Z,100864.00
2019-04-28T19:01:17.193Z,100870.00
2019-04-28T19:03:45.415Z,100880.00
2019-04-28T19:06:13.611Z,100877.00
2019-04-28T19:08:53.178Z,100881.00
2019-04-28T19:11:32.316Z,100886.00
2019-04-28T19:14:15.705Z,100881.00
2019-04-28T19:17:05.438Z,100890.00
2019-04-28T19:19:35.710Z,100880.00
2019-04-28T19:22:04.007Z,100890.00
2019-04-28T19:24:32.286Z,100889.00
2019-04-28T19:27:00.428Z,100884.00
2019-04-28T19:29:28.556Z,100886.00
2019-04-28T19:31:56.689Z,100886.00
2019-04-28T19:34:24.814Z,100883.00
2019-04-28T19:36:54.076Z,100881.00
2019-04-28T19:39:22.049Z,100883.00
2019-04-28T19:41:50.221Z,100890.00
2019-04-28T19:44:18.277Z,100894.00
2019-04-28T19:46:46.259Z,100894.00
2019-04-28T19:49:15.457Z,100894.00
2019-04-28T19:51:43.539Z,100898.00
2019-04-28T19:54:12.793Z,100892.00
2019-04-28T19:56:49.797Z,100906.00
2019-04-28T19:59:26.287Z,100907.00
2019-04-28T20:01:54.487Z,100908.00
2019-04-28T20:04:23.966Z,100918.00
2019-04-28T20:06:53.334Z,100912.00
2019-04-28T20:09:22.512Z,100919.00
2019-04-28T20:11:51.040Z,100913.00
2019-04-28T20:14:19.103Z,100914.00
2019-04-28T20:16:47.385Z,100914.00
2019-04-28T20:19:16.287Z,100922.00
2019-04-28T20:21:44.434Z,100922.00
2019-04-28T20:24:12.969Z,100926.00
2019-04-28T20:26:41.035Z,100940.00
2019-04-28T20:29:10.101Z,100938.00
2019-04-28T20:31:38.616Z,100938.00
2019-04-28T20:34:06.829Z,100933.00
2019-04-28T20:37:00.519Z,100941.00
2019-04-28T20:39:30.823Z,100952.00
2019-04-28T20:42:18.633Z,100952.00
2019-04-28T20:44:47.159Z,100945.00
2019-04-28T20:47:15.225Z,100960.00
2019-04-28T20:49:43.432Z,100960.00
2019-04-28T20:52:12.704Z,100957.00
2019-04-28T20:54:40.828Z,100953.00
2019-04-28T20:57:09.041Z,100962.00
2019-04-28T20:59:37.210Z,100961.00
2019-04-28T21:02:05.397Z,100975.00
2019-04-28T21:04:33.560Z,100958.00
2019-04-28T21:07:01.617Z,100960.00
2019-04-28T21:09:30.081Z,100960.00
2019-04-28T21:11:58.275Z,100962.00
2019-04-28T21:14:26.357Z,100952.00
2019-04-28T21:16:55.092Z,100962.00
2019-04-28T21:19:23.265Z,100961.00
2019-04-28T21:21:51.424Z,100966.00
2019-04-28T21:24:19.523Z,100957.00
2019-04-28T21:26:48.258Z,100956.00
2019-04-28T21:29:16.705Z,100960.00
2019-04-28T21:31:44.854Z,100956.00
2019-04-28T21:34:13.125Z,100960.00
2019-04-28T21:36:44.494Z,100961.00
2019-04-28T21:39:12.689Z,100965.00
2019-04-28T21:41:41.023Z,100973.00
2019-04-28T21:44:25.117Z,100965.00
2019-04-28T21:47:12.299Z,100958.00
2019-04-28T21:49:42.020Z,100966.00
2019-04-28T21:52:10.238Z,100962.00
2019-04-28T21:54:38.354Z,100964.00
2019-04-28T21:57:06.535Z,100967.00
2019-04-28T21:59:35.386Z,100960.00
2019-04-28T22:02:03.823Z,100971.00
2019-04-28T22:04:31.857Z,100973.00
2019-04-28T22:06:59.845Z,100972.00
2019-04-28T22:09:27.818Z,100972.00
2019-04-28T22:11:55.902Z,100976.00
2019-04-28T22:14:23.913Z,100981.00
2019-04-28T22:16:51.904Z,100981.00
2019-04-28T22:19:21.209Z,100989.00
2019-04-28T22:21:49.254Z,100983.00
2019-04-28T22:24:23.292Z,100988.00
2019-04-28T22:26:52.338Z,100993.00
2019-04-28T22:29:20.251Z,100990.00
2019-04-28T22:31:48.346Z,100991.00
2019-04-28T22:34:16.345Z,101004.00
2019-04-28T22:36:45.828Z,101012.00
2019-04-28T22:39:14.277Z,101008.00
2019-04-28T22:41:43.511Z,101015.00
2019-04-28T22:44:11.462Z,101013.00
2019-04-28T22:46:39.610Z,101004.00
2019-04-28T22:49:07.608Z,101019.00
2019-04-28T22:51:35.698Z,101018.00
2019-04-28T22:54:10.314Z,101023.00
2019-04-28T22:56:49.219Z,101026.00
2019-04-28T22:59:24.575Z,101035.00
2019-04-28T23:01:58.832Z,101033.00
2019-04-28T23:04:39.950Z,101035.00
2019-04-28T23:07:07.921Z,101040.00
2019-04-28T23:09:35.945Z,101040.00
2019-04-28T23:12:05.173Z,101039.00
2019-04-28T23:14:33.170Z,101037.00
2019-04-28T23:17:01.333Z,101036.00
2019-04-28T23:19:32.178Z,101039.00
2019-04-28T23:22:15.527Z,101039.00
2019-04-28T23:24:43.495Z,101031.00
2019-04-28T23:27:12.609Z,101028.00
2019-04-28T23:29:40.683Z,101041.00
2019-04-28T23:32:09.665Z,101042.00
2019-04-28T23:34:37.704Z,101048.00
2019-04-28T23:37:06.078Z,101049.00
2019-04-28T23:39:34.174Z,101047.00
2019-04-28T23:42:15.097Z,101049.00
2019-04-28T23:44:43.038Z,101045.00
2019-04-28T23:47:10.986Z,101049.00
2019-04-28T23:49:38.902Z,101045.00
2019-04-28T23:52:26.696Z,101049.00
2019-04-28T23:54:58.108Z,101047.00
2019-04-28T23:57:26.053Z,101042.00
2019-04-28T23:59:53.999Z,101044.00
